createdAt,value
2022-08-24T00:01:06.437Z,20.90
2022-08-24T00:03:34.855Z,20.90
2022-08-24T00:06:03.906Z,20.90
2022-08-24T00:08:31.180Z,20.80
2022-08-24T00:10:59.667Z,20.80
2022-08-24T00:13:29.455Z,20.70
2022-08-24T00:15:59.534Z,20.70
2022-08-24T00:18:27.142Z,20.70
2022-08-24T00:20:54.344Z,20.60
2022-08-24T00:23:21.542Z,20.60
2022-08-24T00:25:48.648Z,20.50
2022-08-24T00:28:15.642Z,20.50
2022-08-24T00:30:42.574Z,20.40
2022-08-24T00:33:09.930Z,20.50
2022-08-24T00:35:36.783Z,20.40
2022-08-24T00:38:04.137Z,20.40
2022-08-24T00:40:36.906Z,20.50
2022-08-24T00:43:07.927Z,20.40
2022-08-24T00:45:43.509Z,20.40
2022-08-24T00:48:18.288Z,20.40
2022-08-24T00:51:08.970Z,20.40
2022-08-24T00:53:43.110Z,20.40
2022-08-24T00:56:20.887Z,20.30
2022-08-24T00:59:05.133Z,20.30
2022-08-24T01:01:35.318Z,20.30
2022-08-24T01:04:03.150Z,20.20
2022-08-24T01:06:32.755Z,20.20
2022-08-24T01:09:00.424Z,20.20
2022-08-24T01:11:33.927Z,20.10
2022-08-24T01:14:03.137Z,20.10
2022-08-24T01:16:49.096Z,20.00
2022-08-24T01:19:42.423Z,19.90
2022-08-24T01:22:29.281Z,19.90
2022-08-24T01:24:56.581Z,19.90
2022-08-24T01:27:27.734Z,19.80
2022-08-24T01:29:57.439Z,19.80
2022-08-24T01:32:27.885Z,19.70
2022-08-24T01:34:55.850Z,19.70
2022-08-24T01:37:23.272Z,19.60
2022-08-24T01:39:53.900Z,19.60
2022-08-24T01:42:21.478Z,19.50
2022-08-24T01:44:48.508Z,19.50
2022-08-24T01:47:16.692Z,19.30
2022-08-24T01:49:47.261Z,19.30
2022-08-24T01:52:19.809Z,19.30
2022-08-24T01:54:47.378Z,19.30
2022-08-24T01:57:17.046Z,19.10
2022-08-24T01:59:45.190Z,19.00
2022-08-24T02:02:29.208Z,19.00
2022-08-24T02:04:56.280Z,19.00
2022-08-24T02:07:23.339Z,18.90
2022-08-24T02:09:50.664Z,18.90
2022-08-24T02:12:19.830Z,18.80
2022-08-24T02:14:47.433Z,18.80
2022-08-24T02:17:14.228Z,18.80
2022-08-24T02:19:41.651Z,18.80
2022-08-24T02:22:08.551Z,18.80
2022-08-24T02:24:38.550Z,18.70
2022-08-24T02:27:05.855Z,18.60
2022-08-24T02:29:33.810Z,18.60
2022-08-24T02:32:00.709Z,18.50
2022-08-24T02:34:27.738Z,18.50
2022-08-24T02:36:54.538Z,18.40
2022-08-24T02:39:22.069Z,18.40
2022-08-24T02:41:51.916Z,18.40
2022-08-24T02:44:19.264Z,18.40
2022-08-24T02:46:46.403Z,18.30
2022-08-24T02:49:13.288Z,18.30
2022-08-24T02:51:45.412Z,18.30
2022-08-24T02:54:18.027Z,18.30
2022-08-24T02:56:47.250Z,18.30
2022-08-24T02:59:16.199Z,18.30
2022-08-24T03:01:43.904Z,18.20
2022-08-24T03:04:12.474Z,18.30
2022-08-24T03:06:39.319Z,18.30
2022-08-24T03:09:06.558Z,18.30
2022-08-24T03:11:33.492Z,18.20
2022-08-24T03:14:00.761Z,18.20
2022-08-24T03:16:28.859Z,18.10
2022-08-24T03:18:56.032Z,18.20
2022-08-24T03:21:24.445Z,18.20
2022-08-24T03:23:52.901Z,18.20
2022-08-24T03:26:20.599Z,18.10
2022-08-24T03:28:47.534Z,18.20
2022-08-24T03:31:17.152Z,18.20
2022-08-24T03:33:45.138Z,18.20
2022-08-24T03:36:14.278Z,18.20
2022-08-24T03:38:42.743Z,18.30
2022-08-24T03:41:10.793Z,18.30
2022-08-24T03:43:47.343Z,18.40
2022-08-24T03:46:25.170Z,18.40
2022-08-24T03:48:54.559Z,18.30
2022-08-24T03:51:24.638Z,18.30
2022-08-24T03:53:53.261Z,18.20
2022-08-24T03:56:23.203Z,18.20
2022-08-24T03:58:50.636Z,18.10
2022-08-24T04:01:18.018Z,18.00
2022-08-24T04:03:46.984Z,18.10
2022-08-24T04:06:16.113Z,18.00
2022-08-24T04:08:43.548Z,18.00
2022-08-24T04:11:20.386Z,18.00
2022-08-24T04:13:48.134Z,17.90
2022-08-24T04:16:18.013Z,17.90
2022-08-24T04:18:45.732Z,17.90
2022-08-24T04:21:21.540Z,17.90
2022-08-24T04:23:49.355Z,17.90
2022-08-24T04:26:26.799Z,17.90
2022-08-24T04:29:09.442Z,17.80
2022-08-24T04:31:42.637Z,17.70
2022-08-24T04:34:11.657Z,17.80
2022-08-24T04:36:41.018Z,17.80
2022-08-24T04:39:07.997Z,17.80
2022-08-24T04:41:59.948Z,17.80
2022-08-24T04:44:32.565Z,17.70
2022-08-24T04:47:01.396Z,17.70
2022-08-24T04:49:28.995Z,17.70
2022-08-24T04:51:56.155Z,17.70
2022-08-24T04:54:23.388Z,17.70
2022-08-24T04:57:02.535Z,17.70
2022-08-24T04:59:29.390Z,17.70
2022-08-24T05:01:56.320Z,17.60
2022-08-24T05:04:24.238Z,17.70
2022-08-24T05:06:53.130Z,17.70
2022-08-24T05:09:21.718Z,17.70
2022-08-24T05:11:49.700Z,17.70
2022-08-24T05:14:22.844Z,17.80
2022-08-24T05:16:53.194Z,17.80
2022-08-24T05:19:23.044Z,17.80
2022-08-24T05:21:50.851Z,17.80
2022-08-24T05:24:19.529Z,17.90
2022-08-24T05:26:46.700Z,17.90
2022-08-24T05:29:14.577Z,17.90
2022-08-24T05:31:46.732Z,17.90
2022-08-24T05:34:14.565Z,18.00
2022-08-24T05:36:42.552Z,17.90
2022-08-24T05:39:16.130Z,18.00
2022-08-24T05:41:50.868Z,18.00
2022-08-24T05:44:26.936Z,18.10
2022-08-24T05:46:58.790Z,18.20
2022-08-24T05:49:26.157Z,18.20
2022-08-24T05:51:54.033Z,18.20
2022-08-24T05:54:23.014Z,18.30
2022-08-24T05:57:06.317Z,18.30
2022-08-24T05:59:39.575Z,18.30
2022-08-24T06:02:14.135Z,18.30
2022-08-24T06:04:41.736Z,18.40
2022-08-24T06:07:10.713Z,18.50
2022-08-24T06:09:41.682Z,18.60
2022-08-24T06:12:14.415Z,18.80
2022-08-24T06:14:47.997Z,18.90
2022-08-24T06:17:18.752Z,19.10
2022-08-24T06:19:45.824Z,19.20
2022-08-24T06:22:12.639Z,19.30
2022-08-24T06:24:59.414Z,19.40
2022-08-24T06:27:28.000Z,19.50
2022-08-24T06:29:59.614Z,19.60
2022-08-24T06:32:49.598Z,19.70
2022-08-24T06:35:25.748Z,19.80
2022-08-24T06:37:52.654Z,19.90
2022-08-24T06:40:22.442Z,20.00
2022-08-24T06:42:49.406Z,20.10
2022-08-24T06:45:22.467Z,20.20
2022-08-24T06:47:50.516Z,20.30
2022-08-24T06:50:18.553Z,20.30
2022-08-24T06:52:49.094Z,20.50
2022-08-24T06:55:16.056Z,20.70
2022-08-24T06:57:43.098Z,20.80
2022-08-24T07:00:10.959Z,20.90
2022-08-24T07:02:37.894Z,21.00
2022-08-24T07:05:05.731Z,21.10
2022-08-24T07:07:59.314Z,21.20
2022-08-24T07:10:28.095Z,21.40
2022-08-24T07:12:56.289Z,21.50
2022-08-24T07:15:23.680Z,21.60
2022-08-24T07:18:02.654Z,21.70
2022-08-24T07:20:32.607Z,21.80
2022-08-24T07:23:12.432Z,21.90
2022-08-24T07:25:41.383Z,22.00
2022-08-24T07:28:11.109Z,22.20
2022-08-24T07:30:41.428Z,22.20
2022-08-24T07:33:09.286Z,22.30
2022-08-24T07:35:38.477Z,22.40
2022-08-24T07:38:07.343Z,22.60
2022-08-24T07:40:49.003Z,22.70
2022-08-24T07:43:22.427Z,22.70
2022-08-24T07:45:51.717Z,22.90
2022-08-24T07:48:19.945Z,23.00
2022-08-24T07:50:47.658Z,23.20
2022-08-24T07:53:20.692Z,23.30
2022-08-24T07:55:54.610Z,23.40
2022-08-24T07:58:22.018Z,23.50
2022-08-24T08:00:49.127Z,23.60
2022-08-24T08:03:17.747Z,23.70
2022-08-24T08:05:45.284Z,23.90
2022-08-24T08:08:12.262Z,24.00
2022-08-24T08:10:40.684Z,24.10
2022-08-24T08:13:07.880Z,24.30
2022-08-24T08:15:36.298Z,24.30
2022-08-24T08:18:10.163Z,24.50
2022-08-24T08:20:41.268Z,24.60
2022-08-24T08:23:27.699Z,24.70
2022-08-24T08:25:57.953Z,24.80
2022-08-24T08:28:36.339Z,24.90
2022-08-24T08:31:05.687Z,25.10
2022-08-24T08:33:36.114Z,25.10
2022-08-24T08:36:07.884Z,25.20
2022-08-24T08:38:39.971Z,25.30
2022-08-24T08:41:23.177Z,25.30
2022-08-24T08:44:13.258Z,25.50
2022-08-24T08:46:54.919Z,25.60
2022-08-24T08:50:02.703Z,25.70
2022-08-24T08:53:12.354Z,25.90
2022-08-24T08:55:57.397Z,26.00
2022-08-24T08:58:53.801Z,26.20
2022-08-24T09:01:54.385Z,26.20
2022-08-24T09:04:46.772Z,26.30
2022-08-24T09:07:21.138Z,26.50
2022-08-24T09:10:04.040Z,26.60
2022-08-24T09:12:58.282Z,26.70
2022-08-24T09:15:57.854Z,26.80
2022-08-24T09:18:31.650Z,27.10
2022-08-24T09:21:27.175Z,27.10
2022-08-24T09:24:20.239Z,27.20
2022-08-24T09:27:08.040Z,27.30
2022-08-24T09:29:56.776Z,27.40
2022-08-24T09:32:49.605Z,27.60
2022-08-24T09:35:31.351Z,27.70
2022-08-24T09:38:04.355Z,27.70
2022-08-24T09:40:40.978Z,27.80
2022-08-24T09:43:32.488Z,27.90
2022-08-24T09:46:37.023Z,28.00
2022-08-24T09:49:21.924Z,28.20
2022-08-24T09:51:54.230Z,28.30
2022-08-24T09:54:42.614Z,28.40
2022-08-24T09:57:21.221Z,28.50
2022-08-24T10:00:13.594Z,28.60
2022-08-24T10:02:46.356Z,28.70
2022-08-24T10:06:05.590Z,28.90
2022-08-24T10:08:52.615Z,29.10
2022-08-24T10:11:38.201Z,29.20
2022-08-24T10:14:23.634Z,29.20
2022-08-24T10:16:50.491Z,29.20
2022-08-24T10:19:39.281Z,29.20
2022-08-24T10:22:23.045Z,29.40
2022-08-24T10:25:09.107Z,29.50
2022-08-24T10:27:53.794Z,29.60
2022-08-24T10:30:48.528Z,29.80
2022-08-24T10:33:21.233Z,29.90
2022-08-24T10:36:25.603Z,29.90
2022-08-24T10:39:30.954Z,30.00
2022-08-24T10:42:00.849Z,30.10
2022-08-24T10:44:48.690Z,30.20
2022-08-24T10:47:23.258Z,30.40
2022-08-24T10:50:15.123Z,30.50
2022-08-24T10:52:58.178Z,30.50
2022-08-24T10:55:28.569Z,30.70
2022-08-24T10:58:06.122Z,30.90
2022-08-24T11:00:33.650Z,31.00
2022-08-24T11:03:08.353Z,31.00
2022-08-24T11:05:45.518Z,31.10
2022-08-24T11:08:26.451Z,31.30
2022-08-24T11:11:09.984Z,31.30
2022-08-24T11:13:49.140Z,31.50
2022-08-24T11:16:28.305Z,31.60
2022-08-24T11:18:57.790Z,31.80
2022-08-24T11:21:37.153Z,32.00
2022-08-24T11:24:08.859Z,32.20
2022-08-24T11:27:07.595Z,32.10
2022-08-24T11:29:49.607Z,32.20
2022-08-24T11:32:26.068Z,32.20
2022-08-24T11:34:53.316Z,32.20
2022-08-24T11:37:30.895Z,32.50
2022-08-24T11:39:57.915Z,32.80
2022-08-24T11:42:46.516Z,32.90
2022-08-24T11:45:40.429Z,33.00
2022-08-24T11:48:28.468Z,32.90
2022-08-24T11:51:38.425Z,33.00
2022-08-24T11:54:10.822Z,33.00
2022-08-24T11:56:45.997Z,33.00
2022-08-24T11:59:16.243Z,33.00
2022-08-24T12:01:51.531Z,32.90
2022-08-24T12:04:42.967Z,33.00
2022-08-24T12:07:19.112Z,32.90
2022-08-24T12:10:00.867Z,32.90
2022-08-24T12:13:25.598Z,33.00
2022-08-24T12:16:13.005Z,32.80
2022-08-24T12:18:57.652Z,32.60
2022-08-24T12:21:31.687Z,32.60
2022-08-24T12:24:03.933Z,32.60
2022-08-24T12:27:02.578Z,32.70
2022-08-24T12:29:44.590Z,32.60
2022-08-24T12:32:28.088Z,32.50
2022-08-24T12:35:06.599Z,32.50
2022-08-24T12:37:54.638Z,32.40
2022-08-24T12:40:35.878Z,32.10
2022-08-24T12:43:23.265Z,31.90
2022-08-24T12:45:51.368Z,31.90
2022-08-24T12:48:27.546Z,32.00
2022-08-24T12:51:00.534Z,32.10
2022-08-24T12:53:42.187Z,32.00
2022-08-24T12:56:18.410Z,32.20
2022-08-24T12:58:55.269Z,32.50
2022-08-24T13:01:27.010Z,32.90
2022-08-24T13:04:16.293Z,33.20
2022-08-24T13:06:49.844Z,33.50
2022-08-24T13:09:39.190Z,34.00
2022-08-24T13:12:31.189Z,34.30
2022-08-24T13:15:37.577Z,34.60
2022-08-24T13:18:07.866Z,35.00
2022-08-24T13:20:34.851Z,35.10
2022-08-24T13:23:04.643Z,35.10
2022-08-24T13:25:55.779Z,35.10
2022-08-24T13:28:22.538Z,35.30
2022-08-24T13:31:17.332Z,35.70
2022-08-24T13:33:53.031Z,35.60
2022-08-24T13:36:32.431Z,35.60
2022-08-24T13:39:17.312Z,35.70
2022-08-24T13:41:44.312Z,35.70
2022-08-24T13:44:22.650Z,36.00
2022-08-24T13:47:05.106Z,36.20
2022-08-24T13:50:12.572Z,36.20
2022-08-24T13:52:58.071Z,36.30
2022-08-24T13:55:43.598Z,36.30
2022-08-24T13:58:19.234Z,36.30
2022-08-24T14:01:03.100Z,36.40
2022-08-24T14:04:08.190Z,36.40
2022-08-24T14:07:00.181Z,36.40
2022-08-24T14:09:48.092Z,36.30
2022-08-24T14:12:17.905Z,35.90
2022-08-24T14:15:16.716Z,35.90
2022-08-24T14:17:56.117Z,35.50
2022-08-24T14:20:55.213Z,35.40
2022-08-24T14:23:52.672Z,35.80
2022-08-24T14:26:38.217Z,36.20
2022-08-24T14:29:20.045Z,36.20
2022-08-24T14:32:01.489Z,35.90
2022-08-24T14:34:45.732Z,36.00
2022-08-24T14:37:18.524Z,36.20
2022-08-24T14:39:55.461Z,36.40
2022-08-24T14:42:41.400Z,36.50
2022-08-24T14:45:25.674Z,36.70
2022-08-24T14:48:22.317Z,37.20
2022-08-24T14:51:15.075Z,37.10
2022-08-24T14:53:59.024Z,37.20
2022-08-24T14:57:12.007Z,37.00
2022-08-24T14:59:53.941Z,36.90
2022-08-24T15:02:32.849Z,36.90
2022-08-24T15:05:22.100Z,37.00
2022-08-24T15:08:13.271Z,37.00
2022-08-24T15:11:09.845Z,36.90
2022-08-24T15:13:48.772Z,36.80
2022-08-24T15:16:34.694Z,36.40
2022-08-24T15:19:27.393Z,36.30
2022-08-24T15:22:06.612Z,36.00
2022-08-24T15:24:47.020Z,36.00
2022-08-24T15:27:52.771Z,35.80
2022-08-24T15:30:32.636Z,35.50
2022-08-24T15:33:28.164Z,35.30
2022-08-24T15:36:11.259Z,35.10
2022-08-24T15:38:40.271Z,34.70
2022-08-24T15:41:20.847Z,34.60
2022-08-24T15:44:11.283Z,34.40
2022-08-24T15:46:49.221Z,34.20
2022-08-24T15:49:30.418Z,34.00
2022-08-24T15:52:07.452Z,33.50
2022-08-24T15:54:57.350Z,33.40
2022-08-24T15:57:35.948Z,33.20
2022-08-24T16:00:11.674Z,33.60
2022-08-24T16:02:39.498Z,33.90
2022-08-24T16:05:21.574Z,34.30
2022-08-24T16:08:03.713Z,34.40
2022-08-24T16:10:34.766Z,34.60
2022-08-24T16:13:20.077Z,34.80
2022-08-24T16:15:54.445Z,34.90
2022-08-24T16:18:21.716Z,35.10
2022-08-24T16:20:49.440Z,35.20
2022-08-24T16:23:27.365Z,35.30
2022-08-24T16:26:21.161Z,35.20
2022-08-24T16:28:48.846Z,35.10
2022-08-24T16:31:41.473Z,35.00
2022-08-24T16:34:29.424Z,34.90
2022-08-24T16:36:57.030Z,35.10
2022-08-24T16:39:24.444Z,35.00
2022-08-24T16:41:55.328Z,34.70
2022-08-24T16:44:26.164Z,34.60
2022-08-24T16:46:53.370Z,34.80
2022-08-24T16:49:20.350Z,34.90
2022-08-24T16:51:47.176Z,34.90
2022-08-24T16:54:14.101Z,34.80
2022-08-24T16:56:42.158Z,34.80
2022-08-24T16:59:24.061Z,34.70
2022-08-24T17:01:50.924Z,34.60
2022-08-24T17:04:18.012Z,34.40
2022-08-24T17:06:45.598Z,34.30
2022-08-24T17:09:12.466Z,34.30
2022-08-24T17:11:39.316Z,34.00
2022-08-24T17:14:07.065Z,33.80
2022-08-24T17:16:34.338Z,33.70
2022-08-24T17:19:05.175Z,33.40
2022-08-24T17:21:32.594Z,33.50
2022-08-24T17:23:59.498Z,33.30
2022-08-24T17:26:26.920Z,33.30
2022-08-24T17:28:56.832Z,33.10
2022-08-24T17:31:28.993Z,33.00
2022-08-24T17:33:56.026Z,32.80
2022-08-24T17:36:23.833Z,32.60
2022-08-24T17:38:55.723Z,32.20
2022-08-24T17:41:24.180Z,32.10
2022-08-24T17:43:51.505Z,32.00
2022-08-24T17:46:19.277Z,31.80
2022-08-24T17:48:47.038Z,31.60
2022-08-24T17:51:14.556Z,31.50
2022-08-24T17:53:41.765Z,31.30
2022-08-24T17:56:09.714Z,31.10
2022-08-24T17:58:56.693Z,31.00
2022-08-24T18:01:23.967Z,30.80
2022-08-24T18:03:51.461Z,30.60
2022-08-24T18:06:20.928Z,30.50
2022-08-24T18:08:48.340Z,30.20
2022-08-24T18:11:15.363Z,30.10
2022-08-24T18:13:42.674Z,30.00
2022-08-24T18:16:19.382Z,29.90
2022-08-24T18:18:48.929Z,29.80
2022-08-24T18:21:15.772Z,29.80
2022-08-24T18:23:43.795Z,29.60
2022-08-24T18:26:11.347Z,29.50
2022-08-24T18:28:38.400Z,29.30
2022-08-24T18:31:10.438Z,29.10
2022-08-24T18:33:37.432Z,29.10
2022-08-24T18:36:04.578Z,29.10
2022-08-24T18:38:31.547Z,29.00
2022-08-24T18:41:01.174Z,28.80
2022-08-24T18:43:28.426Z,28.70
2022-08-24T18:45:55.334Z,28.60
2022-08-24T18:48:23.286Z,28.50
2022-08-24T18:50:51.294Z,28.30
2022-08-24T18:53:19.511Z,28.30
2022-08-24T18:55:47.893Z,28.20
2022-08-24T18:58:14.800Z,28.20
2022-08-24T19:00:42.044Z,28.00
2022-08-24T19:03:11.145Z,28.00
2022-08-24T19:05:40.082Z,27.90
2022-08-24T19:08:07.671Z,27.80
2022-08-24T19:10:37.092Z,27.80
2022-08-24T19:13:15.487Z,27.80
2022-08-24T19:15:42.993Z,27.60
2022-08-24T19:18:12.944Z,27.50
2022-08-24T19:20:48.309Z,27.40
2022-08-24T19:23:25.828Z,27.40
2022-08-24T19:25:53.424Z,27.20
2022-08-24T19:28:21.656Z,27.20
2022-08-24T19:30:49.006Z,27.10
2022-08-24T19:33:22.664Z,27.10
2022-08-24T19:35:51.226Z,27.00
2022-08-24T19:38:21.923Z,26.90
2022-08-24T19:40:51.964Z,26.80
2022-08-24T19:43:19.007Z,26.70
2022-08-24T19:46:05.059Z,26.60
2022-08-24T19:48:37.636Z,26.50
2022-08-24T19:51:08.373Z,26.40
2022-08-24T19:53:37.426Z,26.40
2022-08-24T19:56:06.647Z,26.40
2022-08-24T19:58:50.935Z,26.20
2022-08-24T20:01:23.673Z,26.20
2022-08-24T20:03:51.205Z,26.10
2022-08-24T20:06:21.253Z,26.00
2022-08-24T20:08:48.667Z,25.90
2022-08-24T20:11:16.919Z,25.90
2022-08-24T20:13:43.952Z,25.80
2022-08-24T20:16:15.263Z,25.70
2022-08-24T20:18:42.558Z,25.70
2022-08-24T20:21:10.171Z,25.60
2022-08-24T20:23:37.652Z,25.50
2022-08-24T20:26:07.125Z,25.40
2022-08-24T20:28:40.550Z,25.30
2022-08-24T20:31:09.251Z,25.30
2022-08-24T20:33:36.084Z,25.20
2022-08-24T20:36:03.702Z,25.10
2022-08-24T20:38:31.907Z,25.00
2022-08-24T20:40:59.504Z,25.00
2022-08-24T20:43:26.514Z,24.90
2022-08-24T20:45:53.854Z,24.80
2022-08-24T20:48:30.379Z,24.80
2022-08-24T20:50:58.036Z,24.70
2022-08-24T20:53:25.556Z,24.80
2022-08-24T20:55:53.206Z,24.70
2022-08-24T20:58:22.034Z,24.70
2022-08-24T21:00:49.497Z,24.70
2022-08-24T21:03:18.618Z,24.70
2022-08-24T21:05:47.316Z,24.60
2022-08-24T21:08:15.159Z,24.60
2022-08-24T21:10:42.435Z,24.50
2022-08-24T21:13:09.565Z,24.50
2022-08-24T21:15:38.279Z,24.40
2022-08-24T21:18:05.810Z,24.30
2022-08-24T21:20:32.803Z,24.30
2022-08-24T21:22:59.861Z,24.30
2022-08-24T21:25:27.314Z,24.20
2022-08-24T21:27:54.643Z,24.10
2022-08-24T21:30:22.503Z,24.10
2022-08-24T21:33:08.144Z,24.00
2022-08-24T21:35:35.679Z,24.00
2022-08-24T21:38:04.843Z,23.90
2022-08-24T21:40:32.020Z,23.90
2022-08-24T21:42:59.133Z,23.80
2022-08-24T21:45:27.153Z,23.90
2022-08-24T21:47:54.217Z,23.80
2022-08-24T21:50:22.740Z,23.80
2022-08-24T21:52:53.928Z,23.80
2022-08-24T21:55:21.550Z,23.70
2022-08-24T21:57:49.144Z,23.70
2022-08-24T22:00:18.828Z,23.50
2022-08-24T22:02:46.165Z,23.40
2022-08-24T22:05:13.492Z,23.40
2022-08-24T22:07:40.534Z,23.40
2022-08-24T22:10:08.731Z,23.30
2022-08-24T22:12:36.443Z,23.30
2022-08-24T22:15:05.421Z,23.30
2022-08-24T22:17:32.386Z,23.20
2022-08-24T22:19:59.765Z,23.20
2022-08-24T22:22:27.075Z,23.10
2022-08-24T22:24:53.904Z,23.10
2022-08-24T22:27:20.923Z,22.90
2022-08-24T22:29:52.901Z,23.00
2022-08-24T22:32:19.826Z,22.90
2022-08-24T22:34:46.607Z,22.90
2022-08-24T22:37:13.458Z,22.80
2022-08-24T22:39:40.254Z,22.80
2022-08-24T22:42:07.257Z,22.70
2022-08-24T22:44:34.469Z,22.70
2022-08-24T22:47:03.862Z,22.60
2022-08-24T22:49:43.849Z,22.60
2022-08-24T22:52:16.028Z,22.60
2022-08-24T22:54:43.088Z,22.60
2022-08-24T22:57:09.995Z,22.50
2022-08-24T22:59:40.472Z,22.50
2022-08-24T23:02:13.683Z,22.40
2022-08-24T23:04:44.099Z,22.40
2022-08-24T23:07:11.583Z,22.30
2022-08-24T23:09:44.687Z,22.30
2022-08-24T23:12:21.617Z,22.20
2022-08-24T23:14:50.426Z,22.20
2022-08-24T23:17:18.381Z,22.10
2022-08-24T23:20:00.488Z,22.20
2022-08-24T23:22:31.383Z,22.10
2022-08-24T23:24:59.242Z,22.00
2022-08-24T23:27:32.942Z,22.00
2022-08-24T23:30:08.005Z,21.80
2022-08-24T23:32:35.115Z,21.90
2022-08-24T23:35:02.032Z,21.90
2022-08-24T23:37:28.886Z,21.80
2022-08-24T23:39:55.758Z,21.70
2022-08-24T23:42:22.590Z,21.70
2022-08-24T23:44:49.490Z,21.60
2022-08-24T23:47:16.431Z,21.60
2022-08-24T23:49:43.252Z,21.60
2022-08-24T23:52:26.237Z,21.60
2022-08-24T23:54:54.083Z,21.50
2022-08-24T23:57:20.872Z,21.50
2022-08-24T23:59:47.789Z,21.40
